Time;durP1;ratioP1;P1;durP2;ratioP2;P2;SDS_P1;SDS_P2;PMS_P1;PMS_P2;Temp;Humidity;BMP_temperature;BMP_pressure;BME280_temperature;BME280_humidity;BME280_pressure;Samples;Min_cycle;Max_cycle;Signal;HPM_P1;HPM_P2
2021/09/20 00:00:13;;;;;;;11.90;6.18;;;;;;;13.66;79.19;101860.31;5014152;28;20091;-67
2021/09/20 00:02:41;;;;;;;10.27;5.57;;;;;;;13.68;79.15;101862.00;5013312;28;20053;-66
2021/09/20 00:05:10;;;;;;;10.98;5.60;;;;;;;13.70;79.28;101862.81;5015429;28;20859;-67
2021/09/20 00:07:39;;;;;;;11.50;5.88;;;;;;;13.56;79.12;101863.22;5014786;28;20107;-67
2021/09/20 00:10:10;;;;;;;10.57;5.43;;;;;;;13.59;78.86;101870.31;5014161;28;20053;-67
2021/09/20 00:12:38;;;;;;;10.43;5.22;;;;;;;13.59;78.63;101864.97;5014511;28;20053;-67
2021/09/20 00:15:08;;;;;;;10.20;5.82;;;;;;;13.53;78.72;101867.81;5016465;28;20072;-68
2021/09/20 00:17:36;;;;;;;13.85;5.78;;;;;;;13.51;78.28;101866.97;5015526;28;20049;-67
2021/09/20 00:20:06;;;;;;;10.10;5.30;;;;;;;13.56;78.20;101865.03;5015439;28;20045;-67
2021/09/20 00:22:34;;;;;;;12.30;6.05;;;;;;;13.54;78.20;101861.53;5015291;28;20131;-66
2021/09/20 00:25:04;;;;;;;11.48;5.65;;;;;;;13.48;78.45;101867.06;5014810;28;20514;-67
2021/09/20 00:27:32;;;;;;;11.27;5.35;;;;;;;13.53;77.73;101874.03;5012299;28;20088;-69
2021/09/20 00:30:01;;;;;;;9.77;5.03;;;;;;;13.49;77.94;101871.50;5013285;28;20056;-70
2021/09/20 00:32:29;;;;;;;13.07;5.82;;;;;;;13.43;78.25;101877.91;5011646;28;20131;-70
2021/09/20 00:34:57;;;;;;;11.48;5.63;;;;;;;13.40;78.25;101872.59;5013372;28;20045;-69
2021/09/20 00:37:24;;;;;;;11.63;5.70;;;;;;;13.40;78.13;101878.88;5013172;28;20118;-70
2021/09/20 00:39:53;;;;;;;10.15;5.45;;;;;;;13.42;78.21;101878.84;5012312;28;20505;-70
2021/09/20 00:42:22;;;;;;;9.32;5.28;;;;;;;13.39;78.26;101882.47;5014651;28;20049;-70
2021/09/20 00:44:50;;;;;;;12.40;5.97;;;;;;;13.41;78.03;101877.94;5011057;28;20429;-70
2021/09/20 00:47:18;;;;;;;9.00;5.10;;;;;;;13.41;78.73;101883.28;5014402;28;20076;-69
2021/09/20 00:49:46;;;;;;;10.15;5.13;;;;;;;13.40;78.51;101875.28;5012246;28;20100;-69
2021/09/20 00:52:14;;;;;;;9.63;5.45;;;;;;;13.40;78.29;101881.56;5014361;28;20123;-67
2021/09/20 00:54:42;;;;;;;9.52;4.90;;;;;;;13.39;77.94;101882.47;5012345;28;20053;-69
2021/09/20 00:57:11;;;;;;;11.98;5.20;;;;;;;13.43;77.76;101877.91;5016357;28;20525;-68
2021/09/20 00:59:40;;;;;;;12.70;5.78;;;;;;;13.38;78.25;101879.81;5011170;28;20048;-69
2021/09/20 01:02:08;;;;;;;11.43;5.63;;;;;;;13.34;78.31;101883.53;5011101;28;20115;-69
2021/09/20 01:04:36;;;;;;;9.32;4.93;;;;;;;13.38;78.03;101874.47;5014408;28;20056;-70
2021/09/20 01:07:05;;;;;;;10.13;5.65;;;;;;;13.32;78.54;101874.66;5011826;28;20494;-70
2021/09/20 01:09:37;;;;;;;11.10;5.55;;;;;;;13.34;78.65;101881.72;5016319;28;20160;-68
2021/09/20 01:12:05;;;;;;;11.38;6.10;;;;;;;13.35;78.31;101882.56;5013200;28;20057;-68
2021/09/20 01:14:33;;;;;;;12.48;5.18;;;;;;;13.35;78.52;101885.25;5012170;28;20091;-70
2021/09/20 01:17:03;;;;;;;9.82;5.05;;;;;;;13.34;78.51;101886.19;5013635;28;20089;-69
2021/09/20 01:19:31;;;;;;;13.80;6.28;;;;;;;13.31;78.36;101888.94;5012888;28;20057;-69
2021/09/20 01:22:02;;;;;;;11.65;5.30;;;;;;;13.21;78.82;101888.28;5013861;28;20057;-68
2021/09/20 01:24:32;;;;;;;12.27;6.28;;;;;;;13.21;78.92;101880.25;5009753;28;20135;-69
2021/09/20 01:27:02;;;;;;;11.80;5.90;;;;;;;13.19;78.64;101884.78;5013937;28;20067;-69
2021/09/20 01:29:30;;;;;;;13.10;5.80;;;;;;;13.14;78.80;101881.31;5008181;28;20144;-69
2021/09/20 01:31:58;;;;;;;11.57;6.30;;;;;;;13.08;78.83;101885.94;5013150;28;20398;-69
2021/09/20 01:34:27;;;;;;;13.75;6.05;;;;;;;13.01;78.69;101886.16;5014882;28;20061;-69
2021/09/20 01:36:55;;;;;;;11.75;6.10;;;;;;;13.02;78.66;101885.19;5013374;28;20065;-68
2021/09/20 01:39:25;;;;;;;12.18;5.72;;;;;;;12.98;78.14;101883.53;5016580;28;20555;-68
2021/09/20 01:41:56;;;;;;;11.93;5.97;;;;;;;12.97;78.16;101881.75;5011981;28;20401;-69
2021/09/20 01:44:24;;;;;;;11.00;5.35;;;;;;;12.96;78.31;101880.03;5015116;28;20055;-69
2021/09/20 01:46:54;;;;;;;12.10;5.82;;;;;;;12.94;78.78;101884.50;5011120;28;20081;-68
2021/09/20 01:49:22;;;;;;;12.93;6.13;;;;;;;12.99;79.47;101878.16;5016129;28;20718;-69
2021/09/20 01:51:50;;;;;;;11.43;6.18;;;;;;;13.01;79.44;101876.28;5017114;28;20256;-68
2021/09/20 01:54:19;;;;;;;10.75;5.57;;;;;;;12.99;79.63;101872.78;5014477;28;20073;-69
2021/09/20 01:56:47;;;;;;;12.60;5.43;;;;;;;13.02;79.44;101877.16;5017757;28;20505;-68
2021/09/20 01:59:16;;;;;;;11.90;5.68;;;;;;;12.90;80.00;101881.03;5016007;28;20164;-69
2021/09/20 02:01:43;;;;;;;10.60;4.82;;;;;;;12.85;79.95;101886.50;5017409;28;20116;-68
2021/09/20 02:04:11;;;;;;;11.43;5.28;;;;;;;12.81;79.75;101887.50;5017295;28;20084;-69
2021/09/20 02:06:39;;;;;;;10.85;5.32;;;;;;;12.79;79.53;101888.47;5016243;28;20099;-65
2021/09/20 02:09:10;;;;;;;10.40;5.07;;;;;;;12.69;79.49;101887.81;5018302;28;20053;-66
2021/09/20 02:11:39;;;;;;;10.65;5.20;;;;;;;12.69;79.48;101894.03;5015063;28;20049;-66
2021/09/20 02:14:07;;;;;;;10.25;5.60;;;;;;;12.74;79.33;101895.75;5018521;28;20148;-66
2021/09/20 02:16:37;;;;;;;12.10;5.45;;;;;;;12.74;79.10;101901.09;5016080;28;20136;-66
2021/09/20 02:19:05;;;;;;;12.18;6.57;;;;;;;12.71;78.99;101900.22;5015765;28;20126;-66
2021/09/20 02:21:33;;;;;;;11.73;5.78;;;;;;;12.72;78.94;101903.81;5017616;28;20633;-66
2021/09/20 02:24:01;;;;;;;10.38;5.47;;;;;;;12.76;78.86;101901.94;5015058;28;20119;-67
2021/09/20 02:26:29;;;;;;;10.10;4.95;;;;;;;12.71;78.24;101902.91;5017522;28;20111;-69
2021/09/20 02:28:56;;;;;;;10.90;5.47;;;;;;;12.75;78.53;101906.41;5013900;28;20573;-69
2021/09/20 02:31:24;;;;;;;12.20;5.70;;;;;;;12.80;77.35;101911.66;5017261;28;20184;-68
2021/09/20 02:33:53;;;;;;;9.73;5.05;;;;;;;12.81;77.34;101911.63;5016103;28;20062;-69
2021/09/20 02:36:21;;;;;;;10.13;5.22;;;;;;;12.82;77.35;101920.53;5013663;28;20057;-69
2021/09/20 02:38:49;;;;;;;10.77;5.28;;;;;;;12.79;77.15;101920.63;5017136;28;20151;-69
2021/09/20 02:41:18;;;;;;;12.10;5.88;;;;;;;12.84;77.12;101914.22;5016074;28;20174;-69
2021/09/20 02:43:46;;;;;;;11.48;5.32;;;;;;;12.83;76.89;101914.25;5013610;28;20053;-66
2021/09/20 02:46:15;;;;;;;13.10;5.78;;;;;;;12.79;77.12;101913.47;5016130;28;20057;-66
2021/09/20 02:48:45;;;;;;;11.13;5.78;;;;;;;12.84;77.01;101922.25;5015292;28;20139;-67
2021/09/20 02:51:14;;;;;;;10.27;5.07;;;;;;;12.81;77.13;101918.78;5016895;28;20551;-69
2021/09/20 02:53:41;;;;;;;11.38;6.00;;;;;;;12.76;77.12;101918.88;5014183;28;20064;-69
2021/09/20 02:56:09;;;;;;;12.80;6.35;;;;;;;12.77;77.02;101925.09;5016672;28;20466;-66
2021/09/20 02:58:37;;;;;;;10.38;5.75;;;;;;;12.79;76.98;101925.97;5012469;28;20092;-66
2021/09/20 03:01:05;;;;;;;13.27;6.28;;;;;;;12.80;76.91;101933.06;5016409;28;20172;-66
2021/09/20 03:03:33;;;;;;;12.45;6.10;;;;;;;12.75;76.94;101938.53;5014467;28;20064;-67
2021/09/20 03:06:01;;;;;;;12.55;5.80;;;;;;;12.73;77.00;101944.84;5016338;28;20065;-66
2021/09/20 03:08:30;;;;;;;12.52;6.15;;;;;;;12.79;76.48;101948.28;5011949;28;20045;-66
2021/09/20 03:10:58;;;;;;;13.82;6.28;;;;;;;12.75;76.27;101951.06;5010966;28;21180;-66
2021/09/20 03:13:26;;;;;;;11.20;6.00;;;;;;;12.77;76.21;101952.78;5013285;28;20155;-66
2021/09/20 03:15:54;;;;;;;13.70;6.60;;;;;;;12.76;77.22;101951.03;5014070;28;20523;-66
2021/09/20 03:18:21;;;;;;;11.13;6.57;;;;;;;12.72;78.08;101952.03;5010058;28;20058;-66
2021/09/20 03:20:49;;;;;;;12.10;5.65;;;;;;;12.67;78.52;101944.09;5011178;28;20045;-66
2021/09/20 03:23:17;;;;;;;14.15;6.63;;;;;;;12.68;78.84;101956.56;5011685;28;20057;-66
2021/09/20 03:25:46;;;;;;;12.20;6.30;;;;;;;12.65;79.00;101966.44;5011079;28;20140;-66
2021/09/20 03:28:13;;;;;;;13.85;6.95;;;;;;;12.66;79.01;101963.72;5011149;28;20148;-66
2021/09/20 03:30:41;;;;;;;11.85;6.43;;;;;;;12.62;79.02;101966.53;5012016;28;20045;-66
2021/09/20 03:33:09;;;;;;;14.52;7.30;;;;;;;12.57;80.01;101955.91;5011656;28;20061;-68
2021/09/20 03:35:37;;;;;;;12.55;6.20;;;;;;;12.54;81.07;101955.13;5010993;28;20103;-69
2021/09/20 03:38:04;;;;;;;11.38;5.90;;;;;;;12.50;81.11;101962.34;5009721;28;20057;-69
2021/09/20 03:40:33;;;;;;;13.90;6.88;;;;;;;12.57;80.35;101952.38;5012763;28;20068;-69
2021/09/20 03:43:03;;;;;;;12.95;6.70;;;;;;;12.52;80.71;101960.50;5012305;28;20461;-69
2021/09/20 03:45:31;;;;;;;13.80;6.70;;;;;;;12.49;80.11;101960.56;5012233;28;20049;-69
2021/09/20 03:47:59;;;;;;;13.27;6.78;;;;;;;12.41;79.70;101958.06;5011537;28;20160;-69
2021/09/20 03:50:27;;;;;;;13.77;6.38;;;;;;;12.45;78.25;101962.44;5012189;28;20139;-69
2021/09/20 03:52:54;;;;;;;15.50;7.22;;;;;;;12.46;78.95;101955.28;5011125;28;20045;-68
2021/09/20 03:55:22;;;;;;;11.55;6.57;;;;;;;12.47;78.19;101960.59;5010959;28;20064;-68
2021/09/20 03:57:50;;;;;;;12.50;6.97;;;;;;;12.42;77.21;101966.97;5012571;28;20164;-68
2021/09/20 04:00:19;;;;;;;13.70;7.32;;;;;;;12.40;77.02;101964.31;5010680;28;20572;-68
2021/09/20 04:02:47;;;;;;;14.18;7.05;;;;;;;12.42;77.45;101975.00;5009713;28;20730;-70
2021/09/20 04:05:19;;;;;;;15.35;7.20;;;;;;;12.37;77.29;101974.22;5013411;28;20487;-67
2021/09/20 04:07:47;;;;;;;12.77;6.25;;;;;;;12.37;76.65;101995.63;5007226;28;20056;-69
2021/09/20 04:10:15;;;;;;;12.65;6.72;;;;;;;12.31;76.59;101991.31;5015912;28;20045;-69
2021/09/20 04:12:43;;;;;;;14.65;6.90;;;;;;;12.26;76.49;101991.38;5012692;28;20415;-69
2021/09/20 04:15:12;;;;;;;15.18;7.03;;;;;;;12.30;75.71;101993.06;5015959;28;20099;-70
2021/09/20 04:17:41;;;;;;;12.90;6.53;;;;;;;12.31;75.53;102000.19;5014630;28;20397;-70
2021/09/20 04:20:10;;;;;;;13.43;6.82;;;;;;;12.26;75.25;101991.38;5014768;28;20050;-70
2021/09/20 04:22:38;;;;;;;12.05;7.25;;;;;;;12.28;75.49;101999.38;5014396;28;20057;-70
2021/09/20 04:25:07;;;;;;;11.77;6.47;;;;;;;12.30;75.29;102006.47;5011664;28;20194;-68
2021/09/20 04:27:35;;;;;;;14.50;7.10;;;;;;;12.17;75.60;102009.41;5014731;28;20137;-70
2021/09/20 04:30:04;;;;;;;15.23;7.10;;;;;;;12.22;75.61;102003.03;5012897;28;20053;-69
2021/09/20 04:32:33;;;;;;;15.30;7.32;;;;;;;12.18;76.21;102006.72;5014587;28;20045;-69
2021/09/20 04:35:02;;;;;;;11.82;5.90;;;;;;;12.20;76.49;102006.69;5013445;28;20176;-68
2021/09/20 04:37:30;;;;;;;12.07;6.15;;;;;;;12.19;76.85;102020.97;5013425;28;20053;-67
2021/09/20 04:39:58;;;;;;;14.75;6.88;;;;;;;12.18;76.92;102020.09;5015859;28;20062;-67
2021/09/20 04:42:26;;;;;;;13.93;6.82;;;;;;;12.14;76.99;102011.25;5012806;28;20046;-67
2021/09/20 04:44:54;;;;;;;14.77;6.90;;;;;;;12.14;77.44;102018.41;5012763;28;20152;-66
2021/09/20 04:47:21;;;;;;;15.00;7.35;;;;;;;12.09;77.67;102025.63;5013701;28;20648;-66
2021/09/20 04:49:49;;;;;;;15.65;8.15;;;;;;;12.17;77.00;102026.34;5012752;28;20136;-66
2021/09/20 04:52:18;;;;;;;15.35;7.63;;;;;;;12.11;77.07;102018.47;5013827;28;20072;-68
2021/09/20 04:54:46;;;;;;;14.07;7.00;;;;;;;12.09;77.01;102031.00;5012443;28;20064;-69
2021/09/20 04:57:14;;;;;;;13.82;6.45;;;;;;;12.07;77.04;102027.44;5013226;28;20053;-69
2021/09/20 04:59:42;;;;;;;14.57;7.43;;;;;;;12.02;76.63;102032.00;5012481;28;20119;-68
2021/09/20 05:02:09;;;;;;;12.63;6.65;;;;;;;11.98;76.91;102028.50;5012087;28;20077;-68
2021/09/20 05:04:37;;;;;;;14.98;6.80;;;;;;;12.01;76.71;102030.25;5015729;28;20494;-68
2021/09/20 05:07:05;;;;;;;13.82;6.95;;;;;;;11.99;76.32;102037.44;5011892;28;20054;-70
2021/09/20 05:09:34;;;;;;;12.95;6.75;;;;;;;11.87;76.07;102031.34;5014824;28;20053;-66
2021/09/20 05:12:02;;;;;;;13.32;6.50;;;;;;;11.89;76.14;102040.22;5010134;28;20260;-66
2021/09/20 05:14:30;;;;;;;14.55;6.68;;;;;;;11.88;76.22;102043.78;5012881;28;20127;-65
2021/09/20 05:16:58;;;;;;;12.75;6.55;;;;;;;11.77;76.20;102045.81;5008367;28;20057;-66
2021/09/20 05:19:26;;;;;;;11.43;6.60;;;;;;;11.81;76.07;102047.50;5009992;28;20053;-66
2021/09/20 05:21:54;;;;;;;13.85;6.47;;;;;;;11.86;75.93;102047.41;5017314;28;20041;-70
2021/09/20 05:24:22;;;;;;;14.13;5.95;;;;;;;11.88;75.62;102054.50;5016263;28;20098;-66
2021/09/20 05:26:51;;;;;;;11.43;6.32;;;;;;;11.80;75.90;102059.13;5017736;28;20053;-65
2021/09/20 05:29:22;;;;;;;13.40;6.95;;;;;;;11.85;75.96;102057.25;5012861;28;20056;-67
2021/09/20 05:31:50;;;;;;;13.40;7.13;;;;;;;11.86;75.50;102069.69;5015756;28;20607;-66
2021/09/20 05:34:18;;;;;;;10.95;5.88;;;;;;;11.87;74.74;102070.59;5017762;28;20128;-66
2021/09/20 05:36:47;;;;;;;12.90;6.78;;;;;;;11.84;75.15;102071.53;5015485;28;20049;-66
2021/09/20 05:39:15;;;;;;;12.90;6.50;;;;;;;11.87;74.53;102068.78;5020668;28;20091;-66
2021/09/20 05:41:43;;;;;;;14.25;7.00;;;;;;;11.96;74.06;102076.66;5014291;28;20092;-66
2021/09/20 05:44:12;;;;;;;12.40;6.50;;;;;;;11.90;74.33;102071.41;5014698;28;20084;-66
2021/09/20 05:46:40;;;;;;;15.23;7.38;;;;;;;11.91;73.89;102072.31;5014968;28;20737;-66
2021/09/20 05:49:08;;;;;;;17.15;7.45;;;;;;;11.89;73.69;102074.13;5014604;28;20076;-69
2021/09/20 05:51:36;;;;;;;15.52;7.03;;;;;;;11.91;73.63;102075.88;5019743;28;20140;-68
2021/09/20 05:54:04;;;;;;;11.13;6.45;;;;;;;11.94;73.34;102083.84;5013941;28;20053;-68
2021/09/20 05:56:33;;;;;;;12.45;6.25;;;;;;;12.00;72.94;102088.19;5017797;28;20053;-69
2021/09/20 05:59:01;;;;;;;13.95;6.97;;;;;;;11.99;73.15;102085.56;5015756;28;20080;-69
2021/09/20 06:01:30;;;;;;;13.60;6.78;;;;;;;12.00;73.29;102079.28;5014673;28;20083;-69
2021/09/20 06:03:58;;;;;;;14.45;7.03;;;;;;;11.99;73.91;102085.56;5015858;28;20049;-69
2021/09/20 06:06:26;;;;;;;16.20;7.38;;;;;;;12.01;73.01;102081.94;5016133;28;20144;-68
2021/09/20 06:08:54;;;;;;;12.45;6.57;;;;;;;11.99;72.97;102091.81;5020045;28;20060;-69
2021/09/20 06:11:22;;;;;;;13.27;7.88;;;;;;;12.02;73.54;102086.41;5014727;28;20537;-66
2021/09/20 06:13:49;;;;;;;40.08;10.77;;;;;;;12.03;73.78;102088.16;5013567;28;20143;-66
2021/09/20 06:16:17;;;;;;;17.25;6.88;;;;;;;12.04;73.72;102100.63;5017915;28;20273;-66
2021/09/20 06:18:47;;;;;;;13.43;6.72;;;;;;;12.11;72.94;102107.63;5013770;28;20081;-66
2021/09/20 06:21:14;;;;;;;18.60;7.22;;;;;;;12.07;72.58;102105.94;5014629;28;20118;-67
2021/09/20 06:23:43;;;;;;;13.68;7.00;;;;;;;12.11;72.47;102106.75;5015637;28;20057;-69
2021/09/20 06:26:11;;;;;;;13.77;8.00;;;;;;;12.15;71.96;102106.63;5018385;28;20049;-69
2021/09/20 06:28:39;;;;;;;13.00;6.80;;;;;;;12.09;72.14;102109.44;5016285;28;20100;-68
2021/09/20 06:31:07;;;;;;;13.48;7.25;;;;;;;12.15;72.03;102113.78;5015528;28;20096;-69
2021/09/20 06:33:36;;;;;;;19.13;9.27;;;;;;;12.13;71.44;102121.84;5015359;28;20860;-69
2021/09/20 06:36:06;;;;;;;13.30;7.72;;;;;;;12.21;71.14;102119.03;5014602;28;20544;-69
2021/09/20 06:38:34;;;;;;;13.93;7.28;;;;;;;12.25;71.21;102117.19;5016270;28;20574;-69
2021/09/20 06:41:02;;;;;;;23.60;9.80;;;;;;;12.27;71.44;102118.03;5013188;28;20057;-69
2021/09/20 06:43:29;;;;;;;16.10;8.60;;;;;;;12.27;71.39;102112.69;5015169;28;20302;-67
2021/09/20 06:45:57;;;;;;;14.32;8.15;;;;;;;12.31;70.22;102115.28;5014975;28;21659;-66
2021/09/20 06:48:25;;;;;;;15.63;8.13;;;;;;;12.37;70.18;102113.41;5017145;28;20080;-67
2021/09/20 06:50:57;;;;;;;16.70;7.80;;;;;;;12.39;70.58;102124.94;5017614;28;20630;-66
2021/09/20 06:53:27;;;;;;;15.13;8.32;;;;;;;12.49;70.70;102122.06;5011417;28;20053;-66
2021/09/20 06:55:54;;;;;;;44.90;11.93;;;;;;;12.47;70.72;102120.34;5016113;28;20069;-66
2021/09/20 06:58:22;;;;;;;17.15;7.80;;;;;;;12.51;70.57;102117.56;5014102;28;20107;-66
2021/09/20 07:00:52;;;;;;;14.15;7.20;;;;;;;12.47;70.25;102112.31;5015755;28;20080;-66
2021/09/20 07:03:20;;;;;;;16.90;7.55;;;;;;;12.56;69.87;102117.47;5011464;28;20052;-66
2021/09/20 07:05:48;;;;;;;15.32;8.30;;;;;;;12.65;68.93;102121.75;5015857;28;20089;-66
2021/09/20 07:08:16;;;;;;;22.98;9.57;;;;;;;12.70;69.04;102123.44;5017119;28;20231;-68
2021/09/20 07:10:45;;;;;;;15.63;8.75;;;;;;;12.74;68.66;102118.91;5013142;28;20064;-69
2021/09/20 07:13:13;;;;;;;18.08;8.10;;;;;;;12.93;68.50;102124.75;5015661;28;20113;-68
2021/09/20 07:15:41;;;;;;;14.02;7.43;;;;;;;13.05;67.37;102126.28;5013425;28;20056;-69
2021/09/20 07:18:09;;;;;;;13.27;7.55;;;;;;;13.28;67.00;102136.50;5013440;28;20089;-68
2021/09/20 07:20:36;;;;;;;13.48;7.07;;;;;;;13.52;65.98;102129.72;5013104;28;20559;-68
2021/09/20 07:23:04;;;;;;;14.75;7.72;;;;;;;13.63;64.65;102126.75;5014012;28;20268;-68
2021/09/20 07:25:32;;;;;;;11.40;6.50;;;;;;;13.86;64.12;102128.88;5014238;28;20045;-69
2021/09/20 07:28:02;;;;;;;13.35;6.88;;;;;;;13.86;63.76;102136.03;5014874;28;20459;-68
2021/09/20 07:30:29;;;;;;;59.70;13.38;;;;;;;14.11;63.46;102134.47;5013194;28;20081;-67
2021/09/20 07:32:57;;;;;;;15.15;7.28;;;;;;;14.36;62.43;102136.50;5014045;28;20135;-66
2021/09/20 07:35:25;;;;;;;15.10;6.63;;;;;;;14.55;61.44;102142.25;5015817;28;20524;-66
2021/09/20 07:37:55;;;;;;;12.82;7.60;;;;;;;14.43;60.50;102145.28;5014724;28;20650;-69
2021/09/20 07:40:26;;;;;;;12.50;7.45;;;;;;;14.44;60.55;102147.03;5012943;28;20122;-69
2021/09/20 07:42:55;;;;;;;10.80;6.90;;;;;;;14.59;59.98;102143.06;5013245;28;20042;-68
2021/09/20 07:45:25;;;;;;;11.93;6.60;;;;;;;14.63;59.94;102144.75;5013346;28;20080;-68
2021/09/20 07:47:53;;;;;;;63.67;14.93;;;;;;;14.52;60.60;102158.44;5014309;28;20060;-66
2021/09/20 07:50:22;;;;;;;15.43;6.90;;;;;;;14.54;60.91;102152.13;5012699;28;20099;-68
2021/09/20 07:52:50;;;;;;;15.32;7.13;;;;;;;14.78;60.58;102165.81;5015663;28;20049;-68
2021/09/20 07:55:18;;;;;;;14.15;8.18;;;;;;;14.69;59.32;102161.59;5015477;28;20545;-68
2021/09/20 07:57:46;;;;;;;597.60;100.45;;;;;;;14.79;59.48;102164.00;5010110;28;20057;-67
2021/09/20 08:00:16;;;;;;;14.02;7.82;;;;;;;14.79;59.06;102170.25;5013944;28;20076;-66
2021/09/20 08:02:45;;;;;;;14.68;7.53;;;;;;;14.97;58.32;102166.16;5012955;28;20581;-66
2021/09/20 08:05:14;;;;;;;12.23;6.57;;;;;;;15.04;58.48;102174.94;5015048;28;20057;-67
2021/09/20 08:07:42;;;;;;;11.70;6.05;;;;;;;15.31;58.30;102174.09;5013170;28;20053;-66
2021/09/20 08:10:10;;;;;;;11.75;6.30;;;;;;;15.40;57.72;102175.59;5014403;28;20142;-66
2021/09/20 08:12:38;;;;;;;12.85;5.90;;;;;;;15.12;57.47;102164.84;5012120;28;20473;-69
2021/09/20 08:15:09;;;;;;;17.52;6.05;;;;;;;15.18;56.81;102187.94;5012324;28;20484;-68
2021/09/20 08:17:37;;;;;;;12.40;6.30;;;;;;;15.36;56.47;102187.41;5015853;28;20502;-68
2021/09/20 08:20:10;;;;;;;11.15;5.88;;;;;;;15.44;56.63;102174.59;5014110;28;20085;-66
2021/09/20 08:22:38;;;;;;;12.27;6.30;;;;;;;15.71;56.52;102180.00;5011769;28;20056;-68
2021/09/20 08:25:07;;;;;;;12.43;7.07;;;;;;;15.77;55.82;102187.94;5014879;28;20414;-68
2021/09/20 08:27:36;;;;;;;12.30;6.18;;;;;;;15.78;55.43;102197.78;5012140;28;20520;-66
2021/09/20 08:30:05;;;;;;;14.13;7.55;;;;;;;15.88;55.51;102198.31;5015168;28;20442;-68
2021/09/20 08:32:33;;;;;;;744.17;131.18;;;;;;;15.92;54.90;102196.41;5013293;28;20489;-68
2021/09/20 08:35:02;;;;;;;163.85;27.45;;;;;;;15.85;54.74;102196.63;5015667;28;20072;-69
2021/09/20 08:37:31;;;;;;;15.30;8.20;;;;;;;16.07;55.35;102201.28;5011842;28;20057;-67
2021/09/20 08:39:59;;;;;;;13.80;7.05;;;;;;;15.95;54.73;102196.31;5012604;28;20067;-67
2021/09/20 08:42:27;;;;;;;17.35;7.70;;;;;;;15.76;54.37;102196.91;5013394;28;20045;-67
2021/09/20 08:44:55;;;;;;;15.68;7.85;;;;;;;15.64;54.85;102199.97;5012967;28;20379;-69
2021/09/20 08:47:22;;;;;;;13.07;7.47;;;;;;;15.82;53.59;102198.56;5015108;28;20092;-67
2021/09/20 08:49:52;;;;;;;218.77;35.05;;;;;;;15.82;54.21;102209.31;5010872;28;20049;-67
2021/09/20 08:52:23;;;;;;;14.02;8.18;;;;;;;15.68;53.62;102209.69;5013641;28;20053;-69
2021/09/20 08:54:52;;;;;;;348.25;53.92;;;;;;;16.07;54.72;102203.97;5014603;28;20056;-69
2021/09/20 08:57:21;;;;;;;15.55;8.38;;;;;;;16.04;53.75;102212.19;5011222;28;20445;-66
2021/09/20 08:59:49;;;;;;;17.65;9.25;;;;;;;16.05;54.27;102216.63;5014231;28;20057;-69
2021/09/20 09:02:19;;;;;;;14.90;8.38;;;;;;;16.40;53.10;102214.56;5012794;28;20062;-68
2021/09/20 09:04:48;;;;;;;18.23;8.73;;;;;;;16.49;53.12;102221.44;5012746;28;20103;-66
2021/09/20 09:07:18;;;;;;;146.52;27.92;;;;;;;16.46;53.52;102216.16;5012240;28;20049;-66
2021/09/20 09:09:48;;;;;;;14.45;8.40;;;;;;;16.59;52.50;102220.16;5011882;28;20506;-66
2021/09/20 09:12:22;;;;;;;650.83;121.18;;;;;;;16.33;51.42;102211.19;5013077;28;20073;-66
2021/09/20 09:14:52;;;;;;;15.55;9.38;;;;;;;16.55;50.91;102213.13;5010322;28;20077;-66
2021/09/20 09:17:22;;;;;;;21.00;9.57;;;;;;;16.40;50.58;102210.03;5014488;28;20112;-66
2021/09/20 09:19:54;;;;;;;372.92;60.72;;;;;;;16.35;51.13;102213.84;5011591;28;20049;-66
2021/09/20 09:22:24;;;;;;;13.00;8.32;;;;;;;16.61;50.30;102218.28;5013293;28;20168;-66
2021/09/20 09:24:57;;;;;;;13.32;8.18;;;;;;;16.46;50.27;102219.72;5014059;28;20057;-66
2021/09/20 09:27:27;;;;;;;15.30;9.27;;;;;;;16.52;49.71;102224.03;5012198;28;20054;-68
2021/09/20 09:30:11;;;;;;;138.15;25.80;;;;;;;16.56;49.76;102218.44;5012795;28;20054;-66
2021/09/20 09:32:40;;;;;;;;;;;;;;;16.54;49.65;102227.53;5010666;28;20053;-68
2021/09/20 09:35:10;;;;;;;16.05;9.35;;;;;;;16.68;50.22;102224.34;5013695;28;19960;-69
2021/09/20 09:37:40;;;;;;;17.02;9.25;;;;;;;16.75;50.06;102224.09;5014354;28;20116;-68
2021/09/20 09:40:15;;;;;;;40.08;13.25;;;;;;;16.77;50.21;102235.69;5014425;28;20057;-69
2021/09/20 09:42:45;;;;;;;67.28;15.13;;;;;;;16.61;50.14;102235.34;5016590;28;20446;-69
2021/09/20 09:45:19;;;;;;;15.60;9.82;;;;;;;16.67;50.23;102234.25;5012629;28;20108;-69
2021/09/20 09:47:48;;;;;;;16.70;9.07;;;;;;;16.72;50.24;102226.88;5013135;28;20513;-66
2021/09/20 09:50:21;;;;;;;16.25;9.07;;;;;;;16.89;49.93;102231.69;5015233;28;20136;-69
2021/09/20 09:52:50;;;;;;;219.98;34.75;;;;;;;17.12;49.83;102224.56;5011561;28;20053;-68
2021/09/20 09:55:18;;;;;;;15.32;8.80;;;;;;;17.08;49.62;102231.91;5015085;28;20501;-68
2021/09/20 09:57:49;;;;;;;15.55;8.98;;;;;;;17.04;49.47;102232.06;5011348;28;20164;-69
2021/09/20 10:00:19;;;;;;;16.35;8.57;;;;;;;17.08;49.52;102241.81;5016516;28;20049;-70
2021/09/20 10:02:48;;;;;;;17.17;9.32;;;;;;;16.97;50.00;102243.09;5012391;28;20072;-69
2021/09/20 10:05:19;;;;;;;15.38;9.02;;;;;;;17.43;50.04;102236.88;5012668;28;20378;-69
2021/09/20 10:07:49;;;;;;;17.80;10.38;;;;;;;17.71;49.94;102234.00;5013223;28;20501;-70
2021/09/20 10:10:19;;;;;;;37.63;12.38;;;;;;;17.64;49.40;102232.44;5018244;28;20053;-70
2021/09/20 10:12:50;;;;;;;15.13;8.20;;;;;;;17.32;49.63;102242.69;5015287;28;20582;-69
2021/09/20 10:15:20;;;;;;;16.02;9.07;;;;;;;17.71;49.16;102242.09;5012283;28;22940;-70
2021/09/20 10:17:48;;;;;;;15.38;8.65;;;;;;;17.52;49.46;102239.19;5014168;28;20394;-69
2021/09/20 10:20:21;;;;;;;127.25;25.55;;;;;;;17.72;49.11;102241.13;5017938;28;20049;-68
2021/09/20 10:22:49;;;;;;;14.10;8.13;;;;;;;17.63;49.83;102247.78;5012808;28;20057;-70
2021/09/20 10:25:19;;;;;;;18.50;9.45;;;;;;;17.80;50.00;102247.09;5019630;28;20048;-70
2021/09/20 10:27:50;;;;;;;326.30;58.20;;;;;;;18.02;50.22;102248.97;5012685;28;20120;-70
2021/09/20 10:30:25;;;;;;;15.70;9.40;;;;;;;17.89;49.44;102235.97;5013786;28;20061;-69
2021/09/20 10:32:59;;;;;;;16.27;8.82;;;;;;;17.87;50.24;102239.66;5016755;28;20091;-68
2021/09/20 10:35:32;;;;;;;50.22;13.95;;;;;;;17.90;50.03;102248.53;5016565;28;20045;-68
2021/09/20 10:38:20;;;;;;;17.70;9.73;;;;;;;17.81;50.40;102247.97;5017857;28;20050;-68
2021/09/20 10:41:06;;;;;;;17.70;9.00;;;;;;;18.30;50.22;102243.28;5014677;28;20058;-68
2021/09/20 10:43:36;;;;;;;16.73;9.50;;;;;;;18.31;50.25;102249.59;5017526;28;20071;-68
2021/09/20 10:46:18;;;;;;;15.43;9.25;;;;;;;18.20;50.54;102255.41;5014437;28;20053;-68
2021/09/20 10:48:51;;;;;;;23.35;9.82;;;;;;;18.40;49.37;102244.63;5013623;28;20061;-68
2021/09/20 10:51:25;;;;;;;21.02;9.27;;;;;;;18.26;49.53;102258.75;5013756;28;20132;-70
2021/09/20 10:54:13;;;;;;;15.63;8.45;;;;;;;18.37;48.82;102250.19;5014997;28;20115;-71
2021/09/20 10:56:43;;;;;;;17.80;10.07;;;;;;;18.32;48.32;102243.22;5017260;28;20084;-68
2021/09/20 10:59:29;;;;;;;14.68;8.63;;;;;;;18.33;48.20;102247.69;5016013;28;20536;-69
2021/09/20 11:02:18;;;;;;;20.95;9.38;;;;;;;18.72;47.57;102246.91;5014842;28;20095;-71
2021/09/20 11:04:47;;;;;;;15.02;8.60;;;;;;;18.79;47.62;102242.97;5011958;28;20136;-70
2021/09/20 11:07:21;;;;;;;19.85;8.80;;;;;;;19.06;48.03;102240.88;5015464;28;20144;-70
2021/09/20 11:10:01;;;;;;;21.48;9.23;;;;;;;19.19;46.33;102238.50;5013255;28;20053;-69
2021/09/20 11:12:29;;;;;;;14.07;8.43;;;;;;;19.31;46.32;102242.47;5016782;28;20135;-69
2021/09/20 11:15:12;;;;;;;174.80;31.20;;;;;;;18.96;44.75;102250.38;5017891;28;20056;-69
2021/09/20 11:17:48;;;;;;;106.93;19.98;;;;;;;18.78;45.13;102252.94;5012766;28;20072;-69
2021/09/20 11:20:36;;;;;;;14.32;7.63;;;;;;;18.84;43.98;102243.69;5015003;28;20041;-68
2021/09/20 11:23:25;;;;;;;14.60;7.57;;;;;;;18.44;44.13;102253.53;5013266;28;20053;-69
2021/09/20 11:26:05;;;;;;;15.52;8.40;;;;;;;18.65;43.80;102252.56;5016394;28;20229;-69